Time;durP1;ratioP1;P1;durP2;ratioP2;P2;SDS_P1;SDS_P2;PMS_P1;PMS_P2;Temp;Humidity;BMP_temperature;BMP_pressure;BME280_temperature;BME280_humidity;BME280_pressure;Samples;Min_cycle;Max_cycle;Signal;HPM_P1;HPM_P2
2024/03/14 00:00:05;;;;;;;16.57;11.00;;;;;;;9.86;100.00;101514.19;4984743;28;20273;-74
2024/03/14 00:02:30;;;;;;;15.87;11.77;;;;;;;8.83;100.00;101349.31;4967383;28;20464;-74
2024/03/14 00:04:58;;;;;;;18.67;11.73;;;;;;;9.17;100.00;101390.94;4965797;28;20441;-74
2024/03/14 00:07:23;;;;;;;16.97;10.73;;;;;;;9.71;100.00;101479.31;4968670;28;20186;-74
2024/03/14 00:09:49;;;;;;;17.00;12.00;;;;;;;9.04;100.00;101370.09;4970357;28;20504;-74
2024/03/14 00:12:16;;;;;;;17.10;11.17;;;;;;;9.47;100.00;101431.25;4985353;28;20236;-74
2024/03/14 00:14:50;;;;;;;17.70;12.00;;;;;;;9.07;100.00;101374.28;4987244;28;20210;-74
2024/03/14 00:17:18;;;;;;;17.13;12.03;;;;;;;9.73;100.00;101479.97;4982619;28;20519;-74
2024/03/14 00:19:47;;;;;;;16.33;12.00;;;;;;;9.45;100.00;101450.16;4969504;28;20475;-74
2024/03/14 00:22:13;;;;;;;14.70;11.77;;;;;;;9.73;100.00;101437.09;4980397;28;20507;-74
2024/03/14 00:24:41;;;;;;;19.13;13.23;;;;;;;9.63;100.00;101459.78;4985539;28;20454;-74
2024/03/14 00:27:07;;;;;;;17.00;12.10;;;;;;;9.00;100.00;101334.00;4969836;28;20441;-74
2024/03/14 00:29:33;;;;;;;16.53;12.30;;;;;;;9.65;100.00;101439.84;4983368;28;20446;-75
2024/03/14 00:32:00;;;;;;;15.97;11.20;;;;;;;9.89;100.00;101491.56;4986175;28;20832;-74
2024/03/14 00:34:26;;;;;;;16.57;12.23;;;;;;;8.91;100.00;101296.75;4979327;28;20463;-74
2024/03/14 00:36:53;;;;;;;18.17;12.33;;;;;;;10.00;100.00;101472.41;4969357;28;20992;-75
2024/03/14 00:39:18;;;;;;;15.53;11.93;;;;;;;9.75;100.00;101453.00;4986031;28;22761;-74
2024/03/14 00:41:44;;;;;;;15.73;11.90;;;;;;;9.18;100.00;101338.25;4968729;28;20461;-74
2024/03/14 00:44:10;;;;;;;16.87;12.57;;;;;;;9.78;100.00;101446.44;4984201;28;20437;-74
2024/03/14 00:46:35;;;;;;;20.17;11.80;;;;;;;9.24;100.00;101359.78;4989563;28;20186;-74
2024/03/14 00:49:01;;;;;;;20.50;12.37;;;;;;;9.59;100.00;101420.97;4989361;28;20187;-74
2024/03/14 00:51:26;;;;;;;16.07;12.33;;;;;;;9.30;100.00;101401.06;4983490;28;20206;-74
2024/03/14 00:53:54;;;;;;;15.60;11.10;;;;;;;9.24;100.00;101383.88;4987285;28;20206;-74
2024/03/14 00:56:19;;;;;;;17.70;11.80;;;;;;;9.89;100.00;101437.97;4982739;28;20173;-74
2024/03/14 00:58:45;;;;;;;16.87;11.47;;;;;;;9.98;100.00;101474.44;4968204;28;20445;-74
2024/03/14 01:01:10;;;;;;;15.53;11.23;;;;;;;8.87;100.00;101306.16;4987123;28;20221;-74
2024/03/14 01:03:36;;;;;;;14.70;10.97;;;;;;;9.51;100.00;101421.84;4984672;28;20170;-74
2024/03/14 01:08:37;;;;;;;14.30;10.33;;;;;;;9.84;100.00;101457.28;4929321;28;20207;-82
2024/03/14 01:13:34;;;;;;;12.33;9.30;;;;;;;9.87;100.00;101451.56;4912988;29;20994;-68
2024/03/14 01:16:00;;;;;;;14.80;10.00;;;;;;;9.95;100.00;101486.34;4912927;29;20978;-68
2024/03/14 01:18:25;;;;;;;13.77;9.90;;;;;;;10.02;100.00;101474.91;4911159;29;20469;-68
2024/03/14 01:20:51;;;;;;;17.03;9.97;;;;;;;9.98;100.00;101473.59;4916876;29;20636;-68
2024/03/14 01:23:16;;;;;;;13.03;9.40;;;;;;;9.97;100.00;101475.44;4893384;29;20205;-68
2024/03/14 01:25:42;;;;;;;13.40;9.10;;;;;;;9.79;100.00;101458.84;4914230;29;20224;-68
2024/03/14 01:28:09;;;;;;;13.80;10.03;;;;;;;9.98;100.00;101477.13;4897446;29;20635;-68
2024/03/14 01:30:34;;;;;;;16.47;9.00;;;;;;;9.98;100.00;101487.84;4908815;29;21152;-68
2024/03/14 01:33:00;;;;;;;16.33;9.73;;;;;;;10.03;100.00;101481.94;4914522;29;20479;-68
2024/03/14 01:35:25;;;;;;;12.67;8.63;;;;;;;9.74;100.00;101441.44;4912278;29;20211;-68
2024/03/14 01:37:51;;;;;;;13.87;7.97;;;;;;;9.71;100.00;101443.66;4912570;29;20631;-68
2024/03/14 01:40:17;;;;;;;12.77;8.73;;;;;;;9.98;100.00;101487.00;4908675;29;20212;-68
2024/03/14 01:42:46;;;;;;;16.10;8.50;;;;;;;9.89;100.00;101467.47;4916388;29;20195;-68
2024/03/14 01:45:15;;;;;;;14.70;7.73;;;;;;;10.00;100.00;101488.47;4894366;29;20247;-68
2024/03/14 01:47:43;;;;;;;12.27;8.07;;;;;;;9.85;100.00;101453.59;4914745;29;20812;-68
2024/03/14 01:50:11;;;;;;;12.03;7.70;;;;;;;9.63;100.00;101424.94;4913001;29;20538;-68
2024/03/14 01:52:36;;;;;;;13.57;8.20;;;;;;;9.78;100.00;101439.25;4913816;29;20476;-68
2024/03/14 01:55:02;;;;;;;12.83;7.30;;;;;;;10.03;100.00;101495.34;4894534;29;20475;-68
2024/03/14 01:57:31;;;;;;;15.70;8.13;;;;;;;9.67;100.00;101434.31;4914122;29;20195;-68
2024/03/14 01:59:59;;;;;;;11.03;6.73;;;;;;;10.03;100.00;101482.75;4894873;29;20195;-68
2024/03/14 02:02:27;;;;;;;14.73;8.07;;;;;;;10.15;100.00;101509.97;4913080;29;20491;-68
2024/03/14 02:05:26;;;;;;;14.53;8.10;;;;;;;10.07;100.00;101502.03;4913785;29;20921;-68
2024/03/14 02:07:51;;;;;;;11.33;6.80;;;;;;;10.05;100.00;101499.50;4911999;29;20523;-68
2024/03/14 02:10:23;;;;;;;10.63;6.97;;;;;;;10.05;100.00;101504.03;4910653;29;20898;-68
2024/03/14 02:12:49;;;;;;;10.63;6.70;;;;;;;9.89;100.00;101470.13;4908495;29;20200;-68
2024/03/14 02:15:17;;;;;;;12.13;6.90;;;;;;;10.06;100.00;101505.69;4915117;29;20466;-68
2024/03/14 02:17:42;;;;;;;14.73;7.90;;;;;;;9.79;100.00;101485.63;4914331;29;23578;-68
2024/03/14 02:20:14;;;;;;;12.03;7.20;;;;;;;9.15;100.00;101355.50;4913639;29;21079;-67
2024/03/14 02:22:40;;;;;;;9.50;6.37;;;;;;;9.70;100.00;101436.63;4909474;29;20210;-68
2024/03/14 02:25:06;;;;;;;10.53;6.70;;;;;;;9.83;100.00;101465.50;4896763;29;20611;-68
2024/03/14 02:27:34;;;;;;;11.80;6.60;;;;;;;9.73;100.00;101441.63;4894343;29;20452;-68
2024/03/14 02:29:59;;;;;;;11.17;7.13;;;;;;;10.03;100.00;101487.28;4910877;29;20440;-68
2024/03/14 02:32:25;;;;;;;13.20;7.27;;;;;;;9.99;100.00;101492.19;4909853;29;20488;-68
2024/03/14 02:34:50;;;;;;;10.00;6.50;;;;;;;9.96;100.00;101482.66;4896287;29;20227;-68
2024/03/14 02:37:18;;;;;;;11.70;7.00;;;;;;;9.81;100.00;101454.16;4913019;29;20195;-68
2024/03/14 02:39:44;;;;;;;11.00;6.30;;;;;;;9.89;100.00;101479.03;4911719;29;20800;-68
2024/03/14 02:42:11;;;;;;;11.23;7.07;;;;;;;8.74;100.00;101296.88;4910484;29;20456;-68
2024/03/14 02:44:37;;;;;;;11.37;6.87;;;;;;;9.87;100.00;101481.06;4909687;29;20959;-68
2024/03/14 02:47:07;;;;;;;15.03;6.40;;;;;;;9.80;100.00;101473.91;4898590;29;20497;-67
2024/03/14 02:49:32;;;;;;;16.50;7.47;;;;;;;9.80;100.00;101469.38;4910591;29;21778;-67
2024/03/14 02:51:58;;;;;;;10.70;6.47;;;;;;;9.64;100.00;101427.47;4910680;29;20475;-68
2024/03/14 02:54:24;;;;;;;11.20;6.87;;;;;;;9.72;100.00;101453.38;4915711;29;20295;-67
2024/03/14 02:56:50;;;;;;;13.07;7.33;;;;;;;9.69;100.00;101442.97;4910486;29;20602;-68
2024/03/14 02:59:16;;;;;;;17.23;7.37;;;;;;;9.59;100.00;101470.00;4894691;29;20192;-67
2024/03/14 03:01:43;;;;;;;10.20;7.30;;;;;;;9.62;100.00;101428.66;4909388;29;20207;-68
2024/03/14 03:04:09;;;;;;;13.60;7.80;;;;;;;9.35;100.00;101387.16;4916220;29;20439;-67
2024/03/14 03:06:36;;;;;;;12.60;7.00;;;;;;;9.23;100.00;101354.63;4895836;29;20442;-67
2024/03/14 03:09:05;;;;;;;12.27;8.17;;;;;;;9.45;100.00;101382.41;4911671;29;20184;-67
2024/03/14 03:11:33;;;;;;;13.00;7.40;;;;;;;9.55;100.00;101404.44;4906849;29;21709;-67
2024/03/14 03:13:59;;;;;;;12.33;7.30;;;;;;;9.60;100.00;101404.72;4910420;29;20471;-67
2024/03/14 03:16:24;;;;;;;12.77;7.43;;;;;;;9.64;100.00;101419.44;4912012;29;21160;-67
2024/03/14 03:18:50;;;;;;;13.83;7.53;;;;;;;9.45;100.00;101371.69;4913619;29;20255;-67
2024/03/14 03:21:15;;;;;;;15.23;8.00;;;;;;;9.67;100.00;101423.59;4909644;29;20216;-67
2024/03/14 03:23:43;;;;;;;11.97;8.27;;;;;;;9.37;100.00;101375.25;4909882;29;20180;-67
2024/03/14 03:26:09;;;;;;;11.83;8.03;;;;;;;9.56;100.00;101392.69;4912132;29;20189;-67
2024/03/14 03:28:35;;;;;;;11.40;7.87;;;;;;;9.53;100.00;101390.38;4909283;29;20810;-67
2024/03/14 03:31:00;;;;;;;14.43;8.40;;;;;;;9.53;100.00;101400.25;4907394;29;20909;-67
2024/03/14 03:33:27;;;;;;;12.50;7.97;;;;;;;9.53;100.00;101392.22;4908966;29;20920;-67
2024/03/14 03:35:52;;;;;;;11.50;7.23;;;;;;;9.65;100.00;101410.38;4918873;29;20969;-67
2024/03/14 03:38:18;;;;;;;14.90;9.20;;;;;;;9.62;100.00;101407.22;4910797;29;20472;-67
2024/03/14 03:40:43;;;;;;;11.77;8.47;;;;;;;9.63;100.00;101407.06;4910615;28;20216;-67
2024/03/14 03:43:12;;;;;;;16.13;8.30;;;;;;;9.60;100.00;101434.16;4913029;29;20563;-68
2024/03/14 03:45:37;;;;;;;13.43;8.27;;;;;;;9.55;100.00;101411.63;4913368;29;20251;-68
2024/03/14 03:48:03;;;;;;;12.53;8.47;;;;;;;9.55;100.00;101403.59;4904633;29;20457;-67
2024/03/14 03:50:29;;;;;;;13.20;8.80;;;;;;;9.38;100.00;101379.59;4895694;29;20298;-67
2024/03/14 03:52:55;;;;;;;12.97;8.53;;;;;;;9.53;100.00;101400.25;4911916;29;20214;-67
2024/03/14 03:55:21;;;;;;;17.83;8.30;;;;;;;9.37;100.00;101371.75;4896876;29;20244;-68
2024/03/14 03:57:47;;;;;;;13.23;8.43;;;;;;;9.40;100.00;101387.44;4913329;29;20455;-67
2024/03/14 04:02:57;;;;;;;14.23;9.27;;;;;;;9.43;100.00;101387.94;4915599;29;20475;-67
2024/03/14 04:05:25;;;;;;;14.03;9.27;;;;;;;9.19;100.00;101353.28;4915854;29;20830;-67
2024/03/14 04:07:53;;;;;;;13.90;9.13;;;;;;;9.43;100.00;101387.09;4898258;29;20180;-67
2024/03/14 04:10:23;;;;;;;15.13;8.80;;;;;;;9.45;100.00;101387.75;4914695;29;20448;-67
2024/03/14 04:12:53;;;;;;;14.30;9.60;;;;;;;9.30;100.00;101363.59;4916601;29;20459;-67
2024/03/14 04:15:21;;;;;;;13.50;10.00;;;;;;;9.36;100.00;101391.50;4914286;29;20947;-67
2024/03/14 04:17:46;;;;;;;13.70;10.03;;;;;;;8.46;100.00;101263.59;4913170;29;20457;-68
2024/03/14 04:20:12;;;;;;;16.43;10.63;;;;;;;9.21;100.00;101375.38;4909537;29;21036;-67
2024/03/14 04:22:40;;;;;;;14.63;10.40;;;;;;;9.25;100.00;101384.69;4916497;29;20185;-68
2024/03/14 04:25:17;;;;;;;14.90;10.87;;;;;;;9.30;100.00;101386.84;4910843;29;20216;-68
2024/03/14 04:27:46;;;;;;;16.37;11.40;;;;;;;8.98;100.00;101364.63;4915139;29;20447;-67
2024/03/14 04:30:15;;;;;;;15.43;11.90;;;;;;;9.20;100.00;101379.91;4911695;29;20537;-68
2024/03/14 04:32:41;;;;;;;15.90;11.53;;;;;;;9.00;100.00;101330.50;4918934;29;20503;-67
2024/03/14 04:35:10;;;;;;;18.27;12.43;;;;;;;8.82;100.00;101317.38;4915998;29;20450;-68
2024/03/14 04:37:37;;;;;;;18.13;12.60;;;;;;;9.07;100.00;101354.72;4916754;29;20443;-66
2024/03/14 04:40:11;;;;;;;17.50;13.17;;;;;;;8.79;100.00;101307.88;4893936;29;20444;-66
2024/03/14 04:42:41;;;;;;;18.13;12.60;;;;;;;8.89;100.00;101307.66;4914740;29;20787;-66
2024/03/14 04:45:11;;;;;;;16.40;11.93;;;;;;;9.02;100.00;101340.00;4910129;29;20543;-67
2024/03/14 04:47:40;;;;;;;20.03;13.97;;;;;;;9.15;100.00;101352.81;4913507;29;20454;-66
2024/03/14 04:50:09;;;;;;;18.27;12.47;;;;;;;9.09;100.00;101345.50;4914051;29;21051;-66
2024/03/14 04:52:35;;;;;;;18.80;13.40;;;;;;;8.43;100.00;101243.38;4912748;29;20448;-66
2024/03/14 04:55:05;;;;;;;18.97;13.10;;;;;;;8.66;100.00;101278.19;4915266;29;20878;-67
2024/03/14 04:57:33;;;;;;;19.10;14.17;;;;;;;8.93;100.00;101334.88;4912749;29;20435;-66
2024/03/14 04:59:59;;;;;;;18.07;12.57;;;;;;;9.03;100.00;101338.19;4913950;29;20452;-66
2024/03/14 05:02:24;;;;;;;19.50;13.90;;;;;;;8.91;100.00;101320.84;4902148;29;20455;-66
2024/03/14 05:04:49;;;;;;;19.53;14.00;;;;;;;8.31;100.00;101245.59;4915070;29;20898;-66
2024/03/14 05:07:15;;;;;;;19.70;13.73;;;;;;;8.77;100.00;101306.41;4916119;29;20213;-66
2024/03/14 05:09:41;;;;;;;19.03;13.47;;;;;;;8.92;100.00;101327.88;4911263;29;20172;-66
2024/03/14 05:12:07;;;;;;;18.27;13.67;;;;;;;8.28;100.00;101229.91;4914859;29;20212;-66
2024/03/14 05:14:34;;;;;;;18.40;14.20;;;;;;;8.25;100.00;101213.38;4903464;29;20538;-66
2024/03/14 05:17:00;;;;;;;16.40;13.13;;;;;;;8.77;100.00;101301.03;4912519;29;20451;-66
2024/03/14 05:19:25;;;;;;;19.23;13.73;;;;;;;8.28;100.00;101210.34;4914052;29;20455;-66
2024/03/14 05:21:50;;;;;;;19.03;13.73;;;;;;;8.40;100.00;101237.56;4915490;29;20223;-67
2024/03/14 05:24:16;;;;;;;18.13;12.77;;;;;;;8.91;100.00;101319.03;4912183;29;20273;-67
2024/03/14 05:26:43;;;;;;;20.10;13.00;;;;;;;8.75;100.00;101287.84;4910622;29;20195;-66
2024/03/14 05:29:08;;;;;;;16.43;12.60;;;;;;;8.79;100.00;101296.34;4895332;29;20561;-66
2024/03/14 05:31:37;;;;;;;19.00;13.07;;;;;;;8.60;100.00;101277.06;4893387;29;20477;-66
2024/03/14 05:34:02;;;;;;;16.97;12.80;;;;;;;8.95;100.00;101319.50;4917371;29;20721;-66
2024/03/14 05:36:28;;;;;;;18.77;13.10;;;;;;;8.29;100.00;101206.66;4910663;29;20463;-66
2024/03/14 05:38:53;;;;;;;15.17;12.90;;;;;;;8.99;100.00;101323.47;4914102;29;20196;-66
2024/03/14 05:41:19;;;;;;;15.30;12.23;;;;;;;8.63;100.00;101275.88;4912301;29;20223;-66
2024/03/14 05:43:45;;;;;;;15.73;11.70;;;;;;;8.25;100.00;101211.53;4911587;29;20558;-66
2024/03/14 05:46:13;;;;;;;16.40;12.57;;;;;;;8.29;100.00;101212.84;4914126;29;20196;-67
2024/03/14 05:48:39;;;;;;;15.20;13.30;;;;;;;8.80;100.00;101303.38;4907887;29;20448;-66
2024/03/14 05:51:05;;;;;;;17.90;13.03;;;;;;;8.96;100.00;101327.31;4912932;29;21266;-66
2024/03/14 05:53:31;;;;;;;15.67;11.50;;;;;;;8.62;100.00;101276.88;4906337;29;20215;-66
2024/03/14 05:56:02;;;;;;;16.80;12.37;;;;;;;8.88;100.00;101324.72;4895834;29;20265;-66
2024/03/14 05:58:31;;;;;;;17.47;12.80;;;;;;;7.94;100.00;101184.78;4910576;29;21113;-66
2024/03/14 06:00:56;;;;;;;19.40;11.70;;;;;;;8.42;100.00;101252.41;4910478;29;20464;-66
2024/03/14 06:03:22;;;;;;;14.10;11.00;;;;;;;8.70;100.00;101300.06;4912134;29;20458;-66
2024/03/14 06:05:52;;;;;;;17.03;12.53;;;;;;;8.79;100.00;101304.34;4894722;29;20267;-66
2024/03/14 06:08:18;;;;;;;17.53;11.30;;;;;;;8.70;100.00;101284.84;4911593;29;20184;-66
2024/03/14 06:10:43;;;;;;;16.97;12.10;;;;;;;8.03;100.00;101204.28;4895323;29;20464;-66
2024/03/14 06:13:09;;;;;;;16.00;11.30;;;;;;;8.72;100.00;101303.41;4912625;29;20474;-66
2024/03/14 06:15:35;;;;;;;15.30;10.60;;;;;;;8.89;100.00;101326.38;4903859;29;20576;-66
2024/03/14 06:18:05;;;;;;;14.73;11.20;;;;;;;8.87;100.00;101354.31;4913109;29;20914;-66
2024/03/14 06:20:32;;;;;;;14.07;10.43;;;;;;;8.91;100.00;101332.41;4891817;29;21217;-66
2024/03/14 06:23:00;;;;;;;17.17;11.33;;;;;;;8.90;100.00;101343.25;4912013;29;20912;-66
2024/03/14 06:25:26;;;;;;;15.20;11.30;;;;;;;8.65;100.00;101289.06;4910728;29;20499;-66
2024/03/14 06:27:52;;;;;;;17.23;11.20;;;;;;;8.92;100.00;101326.03;4909337;29;20436;-66
2024/03/14 06:30:18;;;;;;;14.63;10.77;;;;;;;8.36;100.00;101229.88;4909039;29;20667;-66
2024/03/14 06:32:45;;;;;;;13.37;10.17;;;;;;;8.88;100.00;101331.91;4912296;29;20455;-66
2024/03/14 06:35:11;;;;;;;18.33;10.93;;;;;;;8.87;100.00;101320.38;4913405;29;20514;-66
2024/03/14 06:37:37;;;;;;;15.03;10.63;;;;;;;8.88;100.00;101316.69;4914317;29;20535;-66
2024/03/14 06:40:05;;;;;;;18.57;11.10;;;;;;;8.06;100.00;101190.56;4909249;29;20180;-66
2024/03/14 06:42:32;;;;;;;15.83;11.00;;;;;;;8.56;100.00;101262.38;4912459;29;20188;-66
2024/03/14 06:45:05;;;;;;;15.40;11.17;;;;;;;8.63;100.00;101278.53;4890955;29;20464;-66
2024/03/14 06:47:30;;;;;;;14.33;11.17;;;;;;;8.94;100.00;101321.34;4911820;29;20438;-66
2024/03/14 06:49:58;;;;;;;15.73;10.00;;;;;;;8.14;100.00;101178.00;4910764;29;20440;-66
2024/03/14 06:52:24;;;;;;;21.10;11.03;;;;;;;8.86;100.00;101288.47;4910932;29;20266;-66
2024/03/14 06:54:50;;;;;;;12.90;10.53;;;;;;;8.82;100.00;101279.94;4910042;29;20985;-66
2024/03/14 06:57:15;;;;;;;14.90;11.47;;;;;;;9.04;100.00;101310.41;4893907;29;20223;-66
2024/03/14 06:59:41;;;;;;;18.43;11.30;;;;;;;9.02;100.00;101282.97;4908405;29;20439;-66
2024/03/14 07:02:07;;;;;;;13.70;10.23;;;;;;;9.14;100.00;101321.72;4911082;29;20216;-66
2024/03/14 07:04:37;;;;;;;12.73;9.33;;;;;;;9.13;100.00;101328.06;4894132;29;20196;-66
2024/03/14 07:07:02;;;;;;;15.40;10.37;;;;;;;8.78;100.00;101271.44;4910321;29;20448;-66
2024/03/14 07:09:30;;;;;;;15.33;10.57;;;;;;;8.30;100.00;101195.81;4896153;29;20779;-66
2024/03/14 07:11:58;;;;;;;13.13;9.73;;;;;;;7.90;100.00;101127.38;4894374;29;20311;-66
2024/03/14 07:14:23;;;;;;;13.53;10.80;;;;;;;8.93;100.00;101305.44;4896814;29;20474;-66
2024/03/14 07:16:49;;;;;;;13.87;10.80;;;;;;;8.59;100.00;101248.66;4915435;29;20512;-66
2024/03/14 07:19:21;;;;;;;13.10;10.60;;;;;;;8.78;100.00;101271.44;4915852;29;20200;-66
2024/03/14 07:21:49;;;;;;;15.47;11.73;;;;;;;9.17;100.00;101331.22;4915721;29;20212;-66
2024/03/14 07:24:20;;;;;;;13.83;10.60;;;;;;;8.39;100.00;101196.63;4897640;29;20436;-66
2024/03/14 07:26:46;;;;;;;16.13;11.27;;;;;;;8.25;100.00;101166.09;4915588;29;20444;-66
2024/03/14 07:29:12;;;;;;;15.10;11.57;;;;;;;9.05;100.00;101279.94;4915601;29;20447;-66
2024/03/14 07:31:38;;;;;;;16.73;11.50;;;;;;;9.42;100.00;101329.22;4915185;29;20463;-67
2024/03/14 07:34:07;;;;;;;16.17;11.93;;;;;;;8.81;100.00;101236.31;4900528;29;20488;-66
2024/03/14 07:36:36;;;;;;;14.50;11.10;;;;;;;8.98;100.00;101261.09;4915169;29;20201;-66
2024/03/14 07:39:01;;;;;;;16.63;11.80;;;;;;;9.48;100.00;101333.84;4912068;29;20452;-66
2024/03/14 07:41:27;;;;;;;16.57;12.60;;;;;;;9.19;100.00;101294.41;4913959;29;20468;-66
2024/03/14 07:43:55;;;;;;;14.50;10.77;;;;;;;9.40;100.00;101309.81;4916269;29;20722;-66
2024/03/14 07:46:22;;;;;;;14.73;11.27;;;;;;;9.63;100.00;101336.56;4910861;29;20223;-66
2024/03/14 07:48:49;;;;;;;16.70;12.90;;;;;;;9.47;100.00;101327.66;4915442;29;20860;-66
2024/03/14 07:51:15;;;;;;;14.87;11.90;;;;;;;9.32;100.00;101293.81;4910673;29;20521;-66
2024/03/14 07:53:42;;;;;;;14.23;10.53;;;;;;;9.68;100.00;101340.38;4893913;29;20487;-66
2024/03/14 07:56:09;;;;;;;15.20;11.87;;;;;;;9.84;100.00;101343.94;4910830;29;20454;-66
2024/03/14 07:58:36;;;;;;;15.90;11.60;;;;;;;9.60;100.00;101312.81;4910842;29;20439;-66
2024/03/14 08:01:07;;;;;;;16.27;12.77;;;;;;;9.56;100.00;101325.75;4911087;29;21086;-66
2024/03/14 08:03:33;;;;;;;16.50;12.87;;;;;;;9.59;100.00;101290.56;4899254;29;20470;-66
2024/03/14 08:05:59;;;;;;;18.30;12.17;;;;;;;9.69;100.00;101320.63;4913179;29;20947;-66
2024/03/14 08:08:24;;;;;;;17.20;11.80;;;;;;;10.01;100.00;101355.31;4916604;29;20193;-66
2024/03/14 08:10:50;;;;;;;15.37;11.90;;;;;;;9.81;100.00;101355.00;4910184;29;20576;-66
2024/03/14 08:13:20;;;;;;;17.03;12.47;;;;;;;9.43;100.00;101290.69;4904520;29;20211;-66
2024/03/14 08:15:52;;;;;;;15.73;12.70;;;;;;;9.85;100.00;101335.69;4897102;29;20267;-66
2024/03/14 08:18:21;;;;;;;14.93;12.43;;;;;;;10.21;100.00;101385.94;4911441;29;20456;-67
2024/03/14 08:20:47;;;;;;;16.00;12.53;;;;;;;10.22;100.00;101389.47;4912814;29;20464;-66
2024/03/14 08:23:15;;;;;;;16.90;12.30;;;;;;;9.88;100.00;101361.31;4915150;29;20445;-66
2024/03/14 08:25:42;;;;;;;17.47;11.83;;;;;;;10.11;100.00;101372.81;4912388;29;20969;-66
2024/03/14 08:28:09;;;;;;;16.53;12.37;;;;;;;9.98;100.00;101372.63;4908579;29;21251;-66
2024/03/14 08:30:37;;;;;;;18.97;12.77;;;;;;;9.61;100.00;101327.91;4909814;29;20472;-66
2024/03/14 08:33:03;;;;;;;15.90;12.07;;;;;;;9.79;100.00;101335.59;4894624;29;20455;-66
2024/03/14 08:35:29;;;;;;;17.10;12.53;;;;;;;10.34;100.00;101421.03;4909908;29;20544;-67
2024/03/14 08:37:54;;;;;;;18.90;11.93;;;;;;;10.44;100.00;101426.13;4914136;29;20458;-66
2024/03/14 08:40:20;;;;;;;15.17;12.67;;;;;;;10.46;100.00;101421.41;4910920;29;20205;-66
2024/03/14 08:42:48;;;;;;;17.08;12.23;;;;;;;10.42;100.00;101424.66;4907947;29;20857;-66
2024/03/14 08:45:14;;;;;;;16.20;12.10;;;;;;;10.42;100.00;101413.94;4912305;29;20276;-66
2024/03/14 08:47:40;;;;;;;16.50;12.10;;;;;;;10.10;100.00;101373.00;4899570;29;20447;-66
2024/03/14 08:50:09;;;;;;;19.17;14.00;;;;;;;9.57;100.00;101284.56;4894208;29;20180;-67
2024/03/14 08:52:36;;;;;;;18.30;12.50;;;;;;;10.57;100.00;101438.91;4894955;29;20494;-66
2024/03/14 08:55:11;;;;;;;15.00;10.80;;;;;;;10.27;100.00;101395.97;4914868;29;21041;-66
2024/03/14 08:57:44;;;;;;;17.20;12.40;;;;;;;10.66;100.00;101440.47;4911692;29;20881;-66
2024/03/14 09:00:10;;;;;;;16.90;12.23;;;;;;;10.34;100.00;101404.13;4909175;29;20471;-68
2024/03/14 09:02:35;;;;;;;17.10;12.87;;;;;;;10.65;100.00;101430.78;4913423;29;20267;-68
2024/03/14 09:05:05;;;;;;;19.10;13.53;;;;;;;10.19;100.00;101348.59;4914312;29;20804;-69
2024/03/14 09:07:32;;;;;;;18.10;12.87;;;;;;;10.80;100.00;101441.50;4913741;29;20185;-67
2024/03/14 09:09:58;;;;;;;15.33;11.70;;;;;;;10.81;100.00;101427.06;4897187;29;20502;-66
2024/03/14 09:12:27;;;;;;;16.50;11.57;;;;;;;11.08;100.00;101461.31;4897492;29;20476;-69
2024/03/14 09:14:54;;;;;;;17.73;12.60;;;;;;;11.12;100.00;101463.59;4911153;29;21002;-69
2024/03/14 09:17:20;;;;;;;17.53;11.73;;;;;;;10.94;100.00;101451.41;4914013;29;20444;-68
2024/03/14 09:19:45;;;;;;;13.90;10.87;;;;;;;11.14;100.00;101496.44;4893827;29;20464;-69
2024/03/14 09:22:11;;;;;;;14.27;11.53;;;;;;;11.16;100.00;101484.50;4915267;29;20964;-69
2024/03/14 09:24:36;;;;;;;16.43;11.80;;;;;;;10.61;100.00;101408.00;4914372;29;20738;-69
2024/03/14 09:27:06;;;;;;;16.57;12.10;;;;;;;11.16;100.00;101489.06;4895721;29;20196;-69
2024/03/14 09:29:32;;;;;;;17.97;12.50;;;;;;;11.08;100.00;101492.69;4911989;29;20695;-67
2024/03/14 09:31:59;;;;;;;15.90;11.97;;;;;;;10.71;100.00;101430.03;4913016;29;20456;-66
2024/03/14 09:34:25;;;;;;;16.97;11.70;;;;;;;11.11;100.00;101481.56;4913464;29;20527;-66
2024/03/14 09:36:53;;;;;;;19.20;12.57;;;;;;;11.22;100.00;101493.66;4914438;29;20454;-66
2024/03/14 09:39:21;;;;;;;18.63;12.00;;;;;;;11.18;100.00;101490.53;4909808;29;22021;-69
2024/03/14 09:41:49;;;;;;;18.60;11.43;;;;;;;11.24;100.00;101491.63;4913868;29;20471;-69
2024/03/14 09:44:16;;;;;;;16.10;11.83;;;;;;;11.38;100.00;101488.09;4911103;29;20491;-69
2024/03/14 09:46:49;;;;;;;17.77;12.73;;;;;;;11.36;100.00;101492.00;4913033;29;20432;-69
2024/03/14 09:49:19;;;;;;;18.20;12.80;;;;;;;11.36;100.00;101505.41;4910787;29;20448;-69
2024/03/14 09:51:48;;;;;;;17.93;12.80;;;;;;;11.51;100.00;101508.91;4912059;29;20833;-69
2024/03/14 09:54:17;;;;;;;19.33;12.40;;;;;;;11.43;100.00;101485.69;4903609;29;20468;-67
2024/03/14 09:56:43;;;;;;;17.53;12.37;;;;;;;11.45;100.00;101493.53;4911883;29;20465;-67
2024/03/14 09:59:10;;;;;;;17.30;12.73;;;;;;;11.58;100.00;101512.53;4912646;29;20950;-66
2024/03/14 10:01:37;;;;;;;19.13;12.63;;;;;;;11.70;100.00;101526.28;4910750;29;21280;-67
2024/03/14 10:04:10;;;;;;;20.20;12.00;;;;;;;11.54;100.00;101498.63;4910811;29;21021;-67
2024/03/14 10:06:40;;;;;;;17.57;12.30;;;;;;;11.63;100.00;101526.22;4914360;29;20464;-67
2024/03/14 10:09:11;;;;;;;19.10;12.20;;;;;;;11.50;100.00;101504.56;4894130;29;20439;-69
2024/03/14 10:11:39;;;;;;;16.77;12.87;;;;;;;11.44;100.00;101490.03;4893270;29;20476;-66
2024/03/14 10:14:16;;;;;;;19.77;13.03;;;;;;;11.41;100.00;101487.72;4914006;29;20479;-67
2024/03/14 10:16:44;;;;;;;17.07;12.63;;;;;;;11.40;100.00;101452.97;4905168;29;20451;-66
2024/03/14 10:19:10;;;;;;;20.07;12.63;;;;;;;11.35;100.00;101436.63;4910202;29;20436;-67
2024/03/14 10:21:36;;;;;;;16.10;11.20;;;;;;;11.25;100.00;101412.72;4890939;29;20463;-68
2024/03/14 10:24:02;;;;;;;20.43;12.53;;;;;;;12.02;100.00;101511.56;4911268;29;20192;-66
2024/03/14 10:26:28;;;;;;;16.27;12.00;;;;;;;11.91;100.00;101504.84;4906942;29;20440;-67
2024/03/14 10:28:53;;;;;;;18.03;12.83;;;;;;;11.58;100.00;101450.72;4908395;29;20448;-67
2024/03/14 10:31:21;;;;;;;15.70;11.27;;;;;;;12.02;100.00;101516.94;4908527;29;20295;-67
2024/03/14 10:33:46;;;;;;;17.30;12.43;;;;;;;12.05;100.00;101513.03;4913959;29;20212;-66
2024/03/14 10:36:14;;;;;;;18.53;11.40;;;;;;;12.11;100.00;101517.66;4909673;29;20529;-69
2024/03/14 10:38:41;;;;;;;16.37;12.13;;;;;;;12.20;100.00;101513.81;4911637;29;20287;-67
2024/03/14 10:41:09;;;;;;;17.27;11.63;;;;;;;12.16;100.00;101521.44;4909680;29;20503;-67
2024/03/14 10:43:39;;;;;;;19.80;11.00;;;;;;;11.28;100.00;101382.81;4910791;29;20435;-67
2024/03/14 10:46:12;;;;;;;16.70;12.10;;;;;;;12.12;100.00;101490.59;4907471;29;20455;-67
2024/03/14 10:48:39;;;;;;;19.37;12.73;;;;;;;11.71;100.00;101460.75;4907841;29;20548;-67
2024/03/14 10:51:06;;;;;;;21.10;12.70;;;;;;;12.07;100.00;101540.59;4906815;29;20868;-67
2024/03/14 10:53:34;;;;;;;13.53;9.93;;;;;;;10.97;100.00;101383.09;4908664;29;20468;-67
2024/03/14 10:56:02;;;;;;;16.43;10.63;;;;;;;12.15;100.00;101556.56;4908752;29;20596;-67
2024/03/14 10:58:29;;;;;;;15.63;11.07;;;;;;;12.01;100.00;101535.97;4906276;29;20449;-67
2024/03/14 11:00:56;;;;;;;16.17;10.90;;;;;;;11.99;100.00;101511.97;4903555;29;20463;-67
2024/03/14 11:03:22;;;;;;;16.97;11.00;;;;;;;12.20;100.00;101552.28;4911405;29;20440;-67
2024/03/14 11:05:52;;;;;;;18.90;11.27;;;;;;;12.33;100.00;101526.56;4903733;29;20446;-67
2024/03/14 11:08:22;;;;;;;15.77;10.77;;;;;;;12.40;100.00;101530.94;4911141;29;20815;-67
2024/03/14 11:10:50;;;;;;;12.47;9.27;;;;;;;12.44;100.00;101586.06;4892216;29;20464;-67
2024/03/14 11:13:25;;;;;;;15.07;10.37;;;;;;;12.63;100.00;101597.19;4906538;29;20472;-67
2024/03/14 11:15:54;;;;;;;12.53;8.90;;;;;;;12.60;100.00;101579.56;4905664;29;20539;-67